Time;durP1;ratioP1;P1;durP2;ratioP2;P2;SDS_P1;SDS_P2;PMS_P1;PMS_P2;Temp;Humidity;BMP_temperature;BMP_pressure;BME280_temperature;BME280_humidity;BME280_pressure;Samples;Min_cycle;Max_cycle;Signal;HPM_P1;HPM_P2
2021/05/22 00:00:24;;;;;;;1.00;0.57;;;;;;;10.97;100.00;98047.47;10497429;28;20194;-77
2021/05/22 00:05:43;;;;;;;0.97;0.70;;;;;;;10.89;100.00;98046.88;10494714;28;20790;-78
2021/05/22 00:11:03;;;;;;;1.10;1.00;;;;;;;10.85;100.00;98043.41;10504726;28;20182;-78
2021/05/22 00:16:22;;;;;;;1.40;0.83;;;;;;;10.86;100.00;98035.94;10518106;28;20544;-77
2021/05/22 00:21:41;;;;;;;1.47;0.70;;;;;;;10.80;100.00;98032.91;10504264;28;20204;-76
2021/05/22 00:27:01;;;;;;;0.90;0.60;;;;;;;10.85;100.00;98035.16;10504546;28;20222;-76
2021/05/22 00:32:20;;;;;;;3.97;1.17;;;;;;;10.95;100.00;98044.38;10505082;28;20170;-75
2021/05/22 00:37:40;;;;;;;0.80;0.50;;;;;;;10.99;100.00;98067.09;10502459;28;20229;-74
2021/05/22 00:42:59;;;;;;;1.00;0.57;;;;;;;11.13;100.00;98078.59;10503427;28;20191;-76
2021/05/22 00:48:19;;;;;;;1.10;0.57;;;;;;;11.30;100.00;98099.44;10502542;28;20732;-76
2021/05/22 00:53:38;;;;;;;1.73;0.87;;;;;;;11.49;100.00;98099.38;10503909;28;20167;-74
2021/05/22 00:58:57;;;;;;;1.20;1.00;;;;;;;11.58;100.00;98109.81;10502775;28;20174;-74
2021/05/22 01:04:19;;;;;;;0.97;0.70;;;;;;;11.63;100.00;98107.34;10502291;28;20186;-75
2021/05/22 01:09:40;;;;;;;1.03;0.90;;;;;;;11.66;100.00;98111.22;10502428;28;20539;-80
2021/05/22 01:15:25;;;;;;;0.97;0.50;;;;;;;10.90;98.34;98152.97;10503317;28;20534;-74
2021/05/22 01:20:55;;;;;;;0.90;0.70;;;;;;;9.62;100.00;98222.69;10500934;28;20174;-80
2021/05/22 01:26:15;;;;;;;0.80;0.47;;;;;;;9.15;100.00;98244.06;10502649;28;20232;-75
2021/05/22 01:31:35;;;;;;;0.80;0.50;;;;;;;8.75;100.00;98237.44;10502612;28;20246;-76
2021/05/22 01:36:54;;;;;;;1.37;0.47;;;;;;;8.60;100.00;98235.28;10501257;28;20633;-77
2021/05/22 01:42:13;;;;;;;0.80;0.40;;;;;;;8.57;100.00;98235.28;10501173;28;20199;-79
2021/05/22 01:47:34;;;;;;;1.53;0.73;;;;;;;8.61;100.00;98222.34;10501662;28;20210;-77
2021/05/22 01:52:55;;;;;;;3.90;0.90;;;;;;;8.55;100.00;98245.91;10514509;28;20175;-75
2021/05/22 01:58:14;;;;;;;0.90;0.50;;;;;;;8.37;100.00;98232.31;10500366;28;20179;-80
2021/05/22 02:03:37;;;;;;;0.80;0.50;;;;;;;8.34;100.00;98213.19;10499472;28;20167;-78
2021/05/22 02:08:59;;;;;;;0.90;0.50;;;;;;;8.32;100.00;98199.91;10500626;28;20244;-83
2021/05/22 02:14:27;;;;;;;0.90;0.70;;;;;;;8.31;100.00;98184.63;10500092;28;20206;-83
2021/05/22 02:19:47;;;;;;;0.80;0.57;;;;;;;8.35;100.00;98181.88;10498533;28;20774;-82
2021/05/22 02:25:07;;;;;;;0.90;0.50;;;;;;;8.38;100.00;98192.03;10499389;28;20198;-84
2021/05/22 02:30:27;;;;;;;0.80;0.40;;;;;;;8.29;100.00;98210.88;10498208;28;20283;-82
2021/05/22 02:35:50;;;;;;;1.10;0.73;;;;;;;8.26;100.00;98192.50;10497708;28;20175;-81
2021/05/22 02:41:10;;;;;;;0.90;0.50;;;;;;;8.28;100.00;98190.16;10499753;28;20202;-83
2021/05/22 02:46:36;;;;;;;0.97;0.63;;;;;;;8.37;100.00;98223.34;10498122;28;20665;-81
2021/05/22 02:51:58;;;;;;;0.80;0.60;;;;;;;8.30;100.00;98215.19;10498210;28;20597;-82
2021/05/22 02:57:19;;;;;;;0.80;0.40;;;;;;;8.43;100.00;98199.78;10499140;28;20182;-84
2021/05/22 03:02:39;;;;;;;0.80;0.47;;;;;;;8.42;100.00;98192.75;10497968;28;20984;-81
2021/05/22 03:07:58;;;;;;;0.90;0.63;;;;;;;8.44;100.00;98201.34;10498247;28;20202;-79
2021/05/22 03:13:17;;;;;;;0.80;0.50;;;;;;;8.39;100.00;98188.09;10498474;28;20186;-80
2021/05/22 03:18:36;;;;;;;0.90;0.70;;;;;;;8.54;100.00;98198.50;10497310;28;20179;-83
2021/05/22 03:23:54;;;;;;;1.10;0.93;;;;;;;8.65;100.00;98190.97;10497192;28;20178;-83
2021/05/22 03:29:13;;;;;;;0.80;0.50;;;;;;;8.73;100.00;98195.19;10496486;28;20229;-75
2021/05/22 03:34:32;;;;;;;1.13;1.03;;;;;;;8.66;100.00;98186.22;10496889;28;20596;-76
2021/05/22 03:39:51;;;;;;;1.93;0.77;;;;;;;8.74;100.00;98191.25;10496848;28;20202;-74
2021/05/22 03:45:10;;;;;;;0.80;0.50;;;;;;;8.78;100.00;98183.75;10495889;28;20290;-74
2021/05/22 03:50:29;;;;;;;0.90;0.67;;;;;;;8.77;100.00;98204.13;10495512;28;20171;-75
2021/05/22 03:55:49;;;;;;;0.90;0.57;;;;;;;8.76;100.00;98199.84;10497683;28;20206;-78
2021/05/22 04:01:08;;;;;;;1.00;0.70;;;;;;;8.85;100.00;98222.84;10496346;28;20178;-79
2021/05/22 04:06:27;;;;;;;1.00;0.70;;;;;;;8.84;100.00;98226.00;10494877;28;20202;-81
2021/05/22 04:11:46;;;;;;;0.90;0.60;;;;;;;8.79;100.00;98238.22;10497210;28;20166;-77
2021/05/22 04:17:05;;;;;;;0.80;0.50;;;;;;;8.82;100.00;98236.59;10497185;28;20174;-78
2021/05/22 04:22:23;;;;;;;0.80;0.40;;;;;;;8.79;100.00;98240.94;10495796;28;20246;-81
2021/05/22 04:27:42;;;;;;;0.80;0.50;;;;;;;8.83;100.00;98247.16;10496199;28;20258;-81
2021/05/22 04:33:01;;;;;;;0.80;0.50;;;;;;;8.84;100.00;98245.22;10494551;28;20182;-80
2021/05/22 04:38:21;;;;;;;0.90;0.60;;;;;;;8.83;100.00;98246.41;10496765;28;20175;-80
2021/05/22 04:43:40;;;;;;;1.20;0.90;;;;;;;8.80;100.00;98245.22;10495463;28;20190;-79
2021/05/22 04:48:59;;;;;;;0.90;0.50;;;;;;;8.83;100.00;98241.66;10494655;28;20202;-80
2021/05/22 04:54:19;;;;;;;0.90;0.50;;;;;;;8.77;100.00;98242.50;10499581;28;20198;-77
2021/05/22 04:59:38;;;;;;;0.90;0.70;;;;;;;8.92;100.00;98254.91;10502956;28;20206;-78
2021/05/22 05:04:57;;;;;;;0.80;0.50;;;;;;;9.01;100.00;98250.50;10501501;28;20207;-81
2021/05/22 05:10:16;;;;;;;1.40;0.60;;;;;;;9.12;100.00;98248.41;10503370;28;20746;-79
2021/05/22 05:15:35;;;;;;;1.07;0.93;;;;;;;9.26;100.00;98261.97;10503385;28;20617;-76
2021/05/22 05:20:54;;;;;;;0.80;0.50;;;;;;;9.46;100.00;98267.59;10501837;28;20182;-76
2021/05/22 05:26:12;;;;;;;1.93;0.97;;;;;;;9.61;100.00;98264.28;10502145;28;20202;-76
2021/05/22 05:31:31;;;;;;;1.27;1.10;;;;;;;9.81;100.00;98268.69;10460314;28;20187;-79
2021/05/22 05:36:50;;;;;;;0.90;0.77;;;;;;;9.87;100.00;98277.25;10459751;28;20191;-78
2021/05/22 05:42:10;;;;;;;1.83;0.93;;;;;;;9.93;100.00;98278.34;10460695;28;20199;-78
2021/05/22 05:47:29;;;;;;;1.07;0.80;;;;;;;10.07;100.00;98270.69;10460204;28;20211;-78
2021/05/22 05:52:50;;;;;;;1.30;1.03;;;;;;;10.23;100.00;98278.31;10458162;28;20179;-80
2021/05/22 05:58:09;;;;;;;0.90;0.60;;;;;;;10.32;100.00;98278.59;10459172;28;20574;-82
2021/05/22 06:03:31;;;;;;;0.90;0.73;;;;;;;10.52;100.00;98278.22;10458530;28;20575;-78
2021/05/22 06:08:52;;;;;;;1.53;1.20;;;;;;;10.48;100.00;98276.72;10458960;28;20219;-76
2021/05/22 06:14:19;;;;;;;2.10;0.70;;;;;;;10.65;100.00;98276.44;10458596;28;20203;-77
2021/05/22 06:19:38;;;;;;;0.97;0.77;;;;;;;10.91;100.00;98278.31;10457110;28;20179;-79
2021/05/22 06:24:57;;;;;;;1.00;0.70;;;;;;;10.96;100.00;98277.88;10458333;28;20187;-77
2021/05/22 06:30:17;;;;;;;1.67;1.10;;;;;;;10.88;100.00;98286.66;10492186;28;20226;-77
2021/05/22 06:35:36;;;;;;;2.80;0.97;;;;;;;10.73;100.00;98279.84;10497947;28;20179;-78
2021/05/22 06:40:55;;;;;;;1.87;1.70;;;;;;;10.86;100.00;98283.56;10499726;28;20191;-80
2021/05/22 06:51:34;;;;;;;2.13;1.30;;;;;;;10.53;100.00;98299.03;10497764;28;20537;-84
2021/05/22 06:56:53;;;;;;;1.40;1.27;;;;;;;10.62;100.00;98291.03;10499045;28;20174;-82
2021/05/22 07:02:12;;;;;;;1.13;0.87;;;;;;;10.80;100.00;98297.03;10499275;28;20195;-78
2021/05/22 07:07:32;;;;;;;1.03;0.73;;;;;;;11.09;100.00;98292.56;10497554;28;20209;-79
2021/05/22 07:12:51;;;;;;;1.07;0.70;;;;;;;11.36;100.00;98294.00;10498829;28;20170;-79
2021/05/22 07:18:10;;;;;;;1.77;0.80;;;;;;;11.80;100.00;98295.47;10497211;28;20512;-82
2021/05/22 07:23:29;;;;;;;0.90;0.60;;;;;;;11.70;100.00;98304.75;10498263;28;20183;-79
2021/05/22 07:28:48;;;;;;;1.10;0.90;;;;;;;11.71;100.00;98314.59;10496350;28;20680;-79
2021/05/22 07:34:08;;;;;;;4.10;0.77;;;;;;;11.76;100.00;98317.59;10496690;28;20182;-81
2021/05/22 07:39:27;;;;;;;7.13;2.20;;;;;;;11.45;100.00;98313.47;10497764;28;20186;-82
2021/05/22 07:44:47;;;;;;;0.80;0.40;;;;;;;11.82;99.70;98310.41;10497411;28;20253;-77
2021/05/22 07:50:07;;;;;;;5.97;1.10;;;;;;;11.75;100.00;98320.78;10495198;28;20178;-78
2021/05/22 07:55:27;;;;;;;1.00;0.70;;;;;;;11.47;92.95;98327.63;10497493;28;20257;-75
2021/05/22 08:00:46;;;;;;;0.80;0.50;;;;;;;11.50;98.35;98325.97;10497596;28;20210;-79
2021/05/22 08:06:07;;;;;;;0.90;0.77;;;;;;;11.92;93.91;98319.66;10494335;28;20665;-77
2021/05/22 08:11:26;;;;;;;1.10;1.00;;;;;;;12.13;100.00;98323.47;10497053;28;20629;-76
2021/05/22 08:16:46;;;;;;;1.07;0.80;;;;;;;12.51;87.75;98319.09;10496114;28;20688;-79
2021/05/22 08:22:06;;;;;;;1.00;0.80;;;;;;;12.26;88.03;98310.59;10495532;28;20618;-77
2021/05/22 08:27:26;;;;;;;1.00;0.73;;;;;;;12.12;87.40;98299.88;10497060;28;20218;-76
2021/05/22 08:32:46;;;;;;;1.37;0.70;;;;;;;12.20;86.46;98286.72;10504855;28;20191;-74
2021/05/22 08:38:05;;;;;;;0.90;0.70;;;;;;;12.29;84.56;98281.38;10518093;28;20222;-73
2021/05/22 08:43:24;;;;;;;5.27;0.80;;;;;;;12.64;85.23;98286.81;10504660;28;20291;-76
2021/05/22 08:48:47;;;;;;;0.87;0.43;;;;;;;12.85;85.92;98294.56;10501605;28;20230;-77
2021/05/22 08:54:08;;;;;;;1.00;0.70;;;;;;;13.22;80.88;98282.97;10503118;28;20175;-76
2021/05/22 08:59:27;;;;;;;1.17;0.60;;;;;;;13.01;80.16;98286.28;10503967;28;20171;-78
2021/05/22 09:05:18;;;;;;;2.00;1.63;;;;;;;12.87;68.46;98287.41;10501323;28;20209;-78
2021/05/22 09:10:42;;;;;;;0.90;0.60;;;;;;;13.64;63.39;98277.03;10502312;28;20611;-74
2021/05/22 09:16:09;;;;;;;0.80;0.50;;;;;;;13.62;63.76;98269.19;10502309;28;20194;-74
2021/05/22 09:21:34;;;;;;;1.77;0.87;;;;;;;13.20;64.66;98290.91;10500680;28;20194;-74
2021/05/22 09:27:08;;;;;;;1.00;0.73;;;;;;;13.03;65.18;98294.91;10515604;28;20688;-76
2021/05/22 09:32:27;;;;;;;15.70;1.00;;;;;;;12.88;66.39;98282.69;10502657;28;20265;-75
2021/05/22 09:37:52;;;;;;;0.90;0.60;;;;;;;12.85;64.67;98281.56;10501129;28;20204;-74
2021/05/22 09:43:13;;;;;;;1.00;0.63;;;;;;;12.88;65.30;98283.47;10501029;28;20262;-78
2021/05/22 09:48:34;;;;;;;4.40;1.37;;;;;;;13.10;67.21;98286.44;10500312;28;20210;-76
2021/05/22 09:53:55;;;;;;;1.20;0.80;;;;;;;13.32;68.11;98292.97;10501648;28;20265;-77
2021/05/22 09:59:14;;;;;;;0.80;0.50;;;;;;;13.62;64.69;98285.78;10501683;28;20178;-74
2021/05/22 10:04:34;;;;;;;0.90;0.50;;;;;;;14.83;59.01;98277.63;10499268;28;20530;-76
2021/05/22 10:09:58;;;;;;;1.53;0.77;;;;;;;15.31;57.43;98271.63;10501169;28;20254;-75
2021/05/22 10:15:19;;;;;;;0.90;0.60;;;;;;;14.93;55.50;98273.75;10500731;28;20175;-76
2021/05/22 10:20:38;;;;;;;1.30;0.80;;;;;;;14.64;55.43;98266.81;10499241;28;20218;-75
2021/05/22 10:25:59;;;;;;;4.93;1.87;;;;;;;15.35;53.15;98267.53;10499374;28;20589;-76
2021/05/22 10:31:18;;;;;;;0.80;0.50;;;;;;;14.71;54.27;98291.50;10500191;28;20622;-76
2021/05/22 10:36:57;;;;;;;0.90;0.50;;;;;;;14.45;56.27;98295.53;10498797;28;20171;-76
2021/05/22 10:42:22;;;;;;;1.00;0.67;;;;;;;14.27;54.68;98295.31;10499713;28;20179;-74
2021/05/22 10:47:41;;;;;;;1.73;1.63;;;;;;;13.91;56.74;98341.78;10499361;28;20677;-76
2021/05/22 10:53:22;;;;;;;2.20;1.00;;;;;;;13.26;61.86;98333.38;10499052;28;20174;-76
2021/05/22 10:58:59;;;;;;;8.33;1.00;;;;;;;14.81;59.06;98321.63;10499092;28;20190;-74
2021/05/22 11:04:23;;;;;;;1.20;0.80;;;;;;;14.52;58.76;98314.69;10497631;28;20178;-74
2021/05/22 11:09:49;;;;;;;2.47;0.73;;;;;;;14.20;58.25;98308.56;10493964;28;20202;-79
2021/05/22 11:15:37;;;;;;;1.10;0.60;;;;;;;15.10;58.70;98302.84;10494920;28;20633;-74
2021/05/22 11:21:18;;;;;;;1.00;0.70;;;;;;;15.66;56.21;98298.09;10495770;28;20198;-77
2021/05/22 11:26:48;;;;;;;1.10;0.53;;;;;;;15.86;54.11;98295.78;10495963;28;20210;-75
2021/05/22 11:32:45;;;;;;;1.83;0.80;;;;;;;15.10;55.63;98299.31;10497383;28;20179;-74
2021/05/22 11:38:21;;;;;;;0.80;0.40;;;;;;;15.91;53.87;98298.75;10497612;28;20194;-75
2021/05/22 11:43:42;;;;;;;1.00;0.83;;;;;;;16.51;52.15;98286.09;10497224;28;20629;-75
2021/05/22 11:49:02;;;;;;;7.97;1.03;;;;;;;16.00;51.21;98290.44;10494796;28;20556;-74
2021/05/22 11:54:32;;;;;;;1.10;0.80;;;;;;;15.68;49.36;98285.31;10497461;28;20179;-73
2021/05/22 11:59:51;;;;;;;1.27;0.70;;;;;;;15.35;51.89;98295.22;10497384;28;20178;-75
2021/05/22 12:05:11;;;;;;;0.87;0.50;;;;;;;15.71;51.20;98292.00;10494951;28;20206;-74
2021/05/22 12:10:31;;;;;;;2.60;0.60;;;;;;;16.09;48.90;98315.47;10497125;28;20178;-74
2021/05/22 12:15:53;;;;;;;1.23;0.53;;;;;;;16.67;49.68;98310.84;10496953;28;20617;-75
2021/05/22 12:21:30;;;;;;;0.90;0.50;;;;;;;17.63;46.41;98299.56;10495843;28;20170;-75
2021/05/22 12:26:52;;;;;;;0.90;0.50;;;;;;;16.45;46.71;98296.25;10496442;28;20226;-74
2021/05/22 12:32:13;;;;;;;1.10;0.70;;;;;;;15.65;47.76;98308.41;10496879;28;20178;-78
2021/05/22 12:37:32;;;;;;;1.00;0.70;;;;;;;15.82;47.96;98320.88;10495523;28;20218;-82
2021/05/22 12:42:52;;;;;;;1.00;0.70;;;;;;;16.80;46.17;98299.16;10496595;28;20171;-81
2021/05/22 12:48:25;;;;;;;1.63;0.87;;;;;;;16.28;45.93;98312.34;10494768;28;20308;-76
2021/05/22 12:53:44;;;;;;;2.30;0.87;;;;;;;15.74;50.17;98319.59;10496531;28;20195;-76
2021/05/22 12:59:12;;;;;;;1.50;1.30;;;;;;;15.19;50.64;98323.06;10496439;28;20258;-77
2021/05/22 13:04:31;;;;;;;1.33;0.70;;;;;;;15.20;49.92;98330.16;10494915;28;20167;-77
2021/05/22 13:09:55;;;;;;;2.57;1.50;;;;;;;15.56;51.02;98338.84;10495464;28;20210;-74
2021/05/22 13:15:16;;;;;;;4.63;2.43;;;;;;;16.30;49.57;98320.25;10499405;28;20178;-77
2021/05/22 13:20:38;;;;;;;0.97;0.57;;;;;;;16.72;48.44;98324.91;10500869;28;20175;-78
2021/05/22 13:25:58;;;;;;;3.23;1.90;;;;;;;16.40;53.81;98325.41;10502810;28;20269;-77
2021/05/22 13:31:27;;;;;;;1.00;0.53;;;;;;;17.75;49.66;98315.34;10502652;28;20637;-81
2021/05/22 13:36:48;;;;;;;0.93;0.70;;;;;;;17.45;46.38;98310.69;10501168;28;20209;-79
2021/05/22 13:42:07;;;;;;;1.00;0.60;;;;;;;17.61;46.49;98308.41;10502277;28;20224;-75
2021/05/22 13:47:26;;;;;;;1.10;0.70;;;;;;;16.50;47.77;98315.88;10501644;28;20206;-78
2021/05/22 13:52:46;;;;;;;2.20;1.33;;;;;;;15.87;47.56;98334.16;10500715;28;20167;-76
2021/05/22 13:58:06;;;;;;;0.90;0.60;;;;;;;15.67;48.82;98344.78;10500767;28;20178;-79
2021/05/22 14:03:25;;;;;;;1.50;0.90;;;;;;;16.16;52.11;98342.94;10500327;28;20175;-75
2021/05/22 14:08:44;;;;;;;1.00;0.60;;;;;;;17.85;55.67;98353.06;10500709;28;20219;-79
2021/05/22 14:14:03;;;;;;;1.40;0.60;;;;;;;17.61;53.86;98346.53;10501150;28;20179;-75
2021/05/22 14:19:22;;;;;;;1.00;0.60;;;;;;;17.89;54.98;98336.97;10499610;28;20174;-78
2021/05/22 14:24:41;;;;;;;1.53;0.90;;;;;;;18.16;51.94;98320.22;10500350;28;20261;-76
2021/05/22 14:30:01;;;;;;;1.60;0.73;;;;;;;17.80;48.50;98311.94;10499998;28;20234;-79
2021/05/22 14:35:21;;;;;;;1.00;0.60;;;;;;;18.41;47.99;98311.53;10499062;28;20656;-77
2021/05/22 14:40:40;;;;;;;2.27;1.03;;;;;;;18.40;45.95;98299.59;10500182;28;20183;-74
2021/05/22 14:46:00;;;;;;;0.90;0.40;;;;;;;19.10;45.70;98298.97;10499571;28;20206;-77
2021/05/22 14:51:20;;;;;;;0.90;0.47;;;;;;;18.25;42.38;98295.94;10497171;28;20171;-75
2021/05/22 14:56:38;;;;;;;0.97;0.60;;;;;;;18.40;42.74;98293.25;10499236;28;20192;-78
2021/05/22 15:01:57;;;;;;;2.30;0.70;;;;;;;18.47;40.64;98291.69;10499043;28;20182;-76
2021/05/22 15:07:16;;;;;;;2.07;0.63;;;;;;;18.63;45.11;98299.66;10496140;28;20206;-80
2021/05/22 15:12:35;;;;;;;1.70;0.80;;;;;;;19.05;46.04;98302.38;10498629;28;20183;-77
2021/05/22 15:17:55;;;;;;;1.57;0.90;;;;;;;19.32;46.75;98291.81;10497045;28;20186;-79
2021/05/22 15:23:16;;;;;;;0.90;0.50;;;;;;;19.14;42.62;98302.34;10498514;28;20251;-78
2021/05/22 15:28:35;;;;;;;1.50;0.70;;;;;;;17.96;41.53;98295.69;10497625;28;20262;-78
2021/05/22 15:33:54;;;;;;;0.90;0.60;;;;;;;17.53;43.98;98284.13;10495804;28;20179;-75
2021/05/22 15:39:14;;;;;;;0.90;0.60;;;;;;;17.16;41.69;98299.22;10495938;28;20561;-76
2021/05/22 15:44:34;;;;;;;1.10;0.80;;;;;;;17.03;42.52;98306.16;10496741;28;20175;-73
2021/05/22 15:50:58;;;;;;;1.47;0.70;;;;;;;17.81;42.31;98302.34;10495909;28;20277;-78
2021/05/22 16:01:20;;;;;;;1.00;0.80;;;;;;;17.49;39.85;98303.00;10496766;28;20590;-77
2021/05/22 16:06:39;;;;;;;1.03;0.70;;;;;;;17.29;41.31;98297.09;10494746;28;20234;-78
2021/05/22 16:11:58;;;;;;;1.23;0.57;;;;;;;17.00;41.36;98309.88;10497255;28;20170;-77
2021/05/22 16:17:18;;;;;;;1.63;1.20;;;;;;;16.87;41.50;98309.19;10497254;28;20224;-78
2021/05/22 16:22:39;;;;;;;0.90;0.67;;;;;;;16.71;41.72;98317.03;10495723;28;20174;-78
2021/05/22 16:27:58;;;;;;;1.50;0.80;;;;;;;17.05;41.35;98318.34;10496499;28;20583;-77
2021/05/22 16:33:17;;;;;;;1.73;1.30;;;;;;;17.84;40.35;98310.53;10494789;28;20186;-78
2021/05/22 16:38:36;;;;;;;0.90;0.60;;;;;;;18.00;39.69;98301.84;10496580;28;20202;-77
2021/05/22 16:43:55;;;;;;;1.50;0.77;;;;;;;18.18;40.48;98301.03;10496541;28;20179;-75
2021/05/22 16:49:15;;;;;;;1.00;0.77;;;;;;;18.40;40.70;98309.97;10496581;28;20214;-77
2021/05/22 16:54:34;;;;;;;1.20;0.97;;;;;;;18.64;39.62;98328.28;10504235;28;20171;-74
2021/05/22 16:59:53;;;;;;;0.87;0.50;;;;;;;18.14;41.95;98325.47;10503037;28;20175;-74
2021/05/22 17:05:14;;;;;;;1.20;0.80;;;;;;;18.32;43.26;98342.94;10501618;28;20183;-77
2021/05/22 17:10:33;;;;;;;1.20;0.63;;;;;;;18.41;43.09;98346.47;10503823;28;20214;-76
2021/05/22 17:15:52;;;;;;;1.20;1.10;;;;;;;18.31;43.56;98354.56;10503576;28;20627;-76
2021/05/22 17:21:11;;;;;;;4.27;0.90;;;;;;;18.59;43.36;98354.00;10501063;28;20269;-75
2021/05/22 17:26:30;;;;;;;3.03;0.63;;;;;;;19.20;41.74;98356.22;10501282;28;20246;-75
2021/05/22 17:31:49;;;;;;;2.50;0.80;;;;;;;18.70;43.64;98354.25;10502963;28;20175;-75
2021/05/22 17:37:09;;;;;;;1.00;0.70;;;;;;;19.12;42.58;98355.81;10500143;28;20191;-75
2021/05/22 17:42:28;;;;;;;1.97;1.00;;;;;;;18.59;44.07;98365.16;10500807;28;20590;-77
2021/05/22 17:47:49;;;;;;;1.40;1.13;;;;;;;16.95;49.41;98363.25;10501775;28;20242;-76
2021/05/22 17:53:08;;;;;;;1.40;0.93;;;;;;;16.10;52.42;98378.06;10502080;28;20618;-75
2021/05/22 17:58:27;;;;;;;2.70;2.00;;;;;;;15.55;52.03;98384.44;10501637;28;20170;-78
2021/05/22 18:03:46;;;;;;;2.63;1.00;;;;;;;15.43;53.28;98407.41;10498092;28;20200;-75
2021/05/22 18:09:05;;;;;;;1.00;0.57;;;;;;;15.22;55.90;98446.13;10500934;28;20206;-77
2021/05/22 18:14:25;;;;;;;7.23;0.87;;;;;;;13.26;69.94;98465.94;10501066;28;20257;-75
2021/05/22 18:19:44;;;;;;;0.90;0.57;;;;;;;12.39;80.22;98454.13;10498756;28;20715;-78
2021/05/22 18:25:04;;;;;;;0.90;0.60;;;;;;;12.42;79.65;98442.22;10489716;28;20171;-77
2021/05/22 18:30:27;;;;;;;2.07;0.63;;;;;;;12.47;81.36;98423.19;10472302;28;20238;-78
2021/05/22 18:35:46;;;;;;;1.43;0.87;;;;;;;12.64;76.63;98424.78;10490886;28;20195;-78
2021/05/22 18:41:06;;;;;;;1.13;0.77;;;;;;;12.66;75.34;98418.84;10464871;28;20191;-78
2021/05/22 18:46:25;;;;;;;16.93;1.23;;;;;;;12.49;75.39;98429.06;10457868;28;20329;-78
2021/05/22 18:51:45;;;;;;;1.30;0.60;;;;;;;12.38;76.54;98430.50;10456788;28;20210;-77
2021/05/22 18:57:05;;;;;;;1.00;0.60;;;;;;;12.42;72.04;98434.75;10456676;28;20180;-76
2021/05/22 19:02:25;;;;;;;1.53;0.70;;;;;;;12.36;70.49;98447.47;10456446;28;20171;-79
2021/05/22 19:07:46;;;;;;;1.70;0.77;;;;;;;12.37;69.08;98449.03;10455843;28;20207;-78
2021/05/22 19:13:05;;;;;;;0.90;0.57;;;;;;;12.30;70.58;98454.69;10491622;28;20625;-81
2021/05/22 19:18:25;;;;;;;1.30;0.80;;;;;;;12.21;71.47;98465.50;10496872;28;20178;-78
2021/05/22 19:23:44;;;;;;;1.10;0.97;;;;;;;12.08;72.29;98472.06;10497778;28;20624;-78
2021/05/22 19:29:04;;;;;;;1.10;0.70;;;;;;;11.98;72.35;98479.38;10497175;28;20230;-79
2021/05/22 19:34:23;;;;;;;1.17;0.70;;;;;;;11.87;73.44;98485.50;10495310;28;20653;-78
2021/05/22 19:39:41;;;;;;;5.07;1.00;;;;;;;11.77;75.17;98500.25;10496403;28;20211;-79
2021/05/22 19:45:00;;;;;;;1.50;1.40;;;;;;;11.62;75.37;98505.22;10495761;28;20598;-78
2021/05/22 19:50:21;;;;;;;0.90;0.77;;;;;;;11.52;77.79;98517.19;10509345;28;20175;-75
2021/05/22 19:55:41;;;;;;;1.03;0.80;;;;;;;11.39;81.27;98509.91;10497259;28;20186;-75
2021/05/22 20:01:00;;;;;;;1.20;0.90;;;;;;;11.19;83.65;98511.81;10496151;28;20540;-74
2021/05/22 20:06:20;;;;;;;5.20;1.20;;;;;;;11.01;86.64;98510.53;10494820;28;20202;-75
2021/05/22 20:11:39;;;;;;;1.00;0.70;;;;;;;10.86;87.42;98509.94;10496177;28;20171;-76
2021/05/22 20:16:58;;;;;;;1.40;0.90;;;;;;;10.73;87.09;98519.16;10497280;28;20535;-78
2021/05/22 20:22:17;;;;;;;1.00;0.70;;;;;;;10.59;92.79;98522.13;10496049;28;20174;-77
2021/05/22 20:27:36;;;;;;;1.10;0.97;;;;;;;10.59;98.04;98522.88;10504313;28;20631;-77
2021/05/22 20:32:56;;;;;;;2.97;1.70;;;;;;;10.56;92.34;98515.47;10503846;28;20174;-75
2021/05/22 20:38:17;;;;;;;1.27;0.93;;;;;;;10.39;93.69;98519.22;10504000;28;20171;-79
2021/05/22 20:43:36;;;;;;;1.10;0.70;;;;;;;10.35;96.16;98523.97;10504791;28;20174;-79
2021/05/22 20:48:55;;;;;;;2.20;0.67;;;;;;;10.28;96.92;98525.25;10502460;28;20285;-75
2021/05/22 20:54:16;;;;;;;1.10;1.00;;;;;;;10.13;94.97;98532.09;10504348;28;20829;-77
2021/05/22 20:59:35;;;;;;;1.23;0.70;;;;;;;10.02;100.00;98529.47;10504025;28;20258;-76
2021/05/22 21:04:55;;;;;;;1.30;0.70;;;;;;;10.08;100.00;98544.31;10502605;28;20170;-76
2021/05/22 21:10:15;;;;;;;1.40;0.80;;;;;;;10.13;100.00;98548.59;10501946;28;20206;-76
2021/05/22 21:15:37;;;;;;;4.80;0.80;;;;;;;10.09;100.00;98556.09;10502315;28;20182;-79
2021/05/22 21:20:56;;;;;;;1.00;0.83;;;;;;;10.26;100.00;98568.88;10500975;28;20179;-78
2021/05/22 21:26:15;;;;;;;2.93;1.07;;;;;;;10.28;100.00;98570.03;10502686;28;20281;-76
2021/05/22 21:31:35;;;;;;;1.00;0.80;;;;;;;10.27;100.00;98567.66;10502064;28;20618;-78
2021/05/22 21:36:54;;;;;;;1.23;1.00;;;;;;;10.32;100.00;98569.97;10501467;28;20179;-79
2021/05/22 21:42:13;;;;;;;1.37;0.60;;;;;;;10.40;97.94;98574.97;10501707;28;20178;-75
2021/05/22 21:47:33;;;;;;;1.00;0.90;;;;;;;10.38;96.61;98582.84;10502070;28;20226;-78
2021/05/22 21:52:54;;;;;;;2.17;0.90;;;;;;;10.48;95.10;98590.22;10500933;28;20171;-77
2021/05/22 21:58:13;;;;;;;8.37;0.83;;;;;;;10.51;91.41;98609.41;10515128;28;20632;-77
2021/05/22 22:03:38;;;;;;;0.90;0.60;;;;;;;10.84;85.63;98608.63;10500498;28;20179;-79
2021/05/22 22:08:57;;;;;;;3.80;0.73;;;;;;;11.02;83.80;98609.19;10500027;28;20841;-74
2021/05/22 22:14:16;;;;;;;0.90;0.63;;;;;;;11.07;84.54;98625.22;10500259;28;20182;-76
2021/05/22 22:19:35;;;;;;;0.87;0.47;;;;;;;11.01;85.55;98631.63;10498741;28;20519;-77
2021/05/22 22:24:54;;;;;;;2.47;0.80;;;;;;;10.95;85.65;98622.25;10500679;28;20179;-78
2021/05/22 22:30:13;;;;;;;5.13;0.80;;;;;;;10.93;87.33;98622.66;10499726;28;20262;-75
2021/05/22 22:35:37;;;;;;;1.63;0.60;;;;;;;10.83;89.01;98623.56;10499054;28;20175;-77
2021/05/22 22:40:57;;;;;;;1.10;0.80;;;;;;;10.66;89.94;98610.81;10499024;28;20167;-75
2021/05/22 22:46:16;;;;;;;1.87;0.73;;;;;;;10.48;90.59;98613.00;10498077;28;20199;-75
2021/05/22 22:51:34;;;;;;;0.80;0.40;;;;;;;10.51;92.31;98616.91;10497550;28;20274;-74
2021/05/22 22:56:53;;;;;;;1.53;0.60;;;;;;;10.45;92.94;98613.81;10499594;28;20744;-76
2021/05/22 23:02:12;;;;;;;1.00;0.70;;;;;;;10.31;94.23;98626.91;10499361;28;20178;-74
2021/05/22 23:07:31;;;;;;;0.90;0.50;;;;;;;10.37;97.65;98628.81;10497528;28;20233;-74
2021/05/22 23:12:50;;;;;;;0.90;0.60;;;;;;;10.23;100.00;98624.66;10497786;28;20625;-74
2021/05/22 23:18:09;;;;;;;1.73;0.60;;;;;;;10.20;100.00;98620.75;10497357;28;20187;-75
2021/05/22 23:23:29;;;;;;;0.90;0.60;;;;;;;10.23;100.00;98635.66;10498354;28;20171;-74
2021/05/22 23:28:48;;;;;;;0.90;0.60;;;;;;;10.25;98.92;98638.78;10510876;28;20226;-73
2021/05/22 23:34:07;;;;;;;1.00;0.60;;;;;;;10.19;99.40;98640.38;10496001;28;20171;-73
2021/05/22 23:39:26;;;;;;;1.53;0.73;;;;;;;9.94;100.00;98639.78;10498162;28;20183;-74
2021/05/22 23:44:45;;;;;;;1.23;0.80;;;;;;;9.88;100.00;98639.47;10498044;28;20178;-74
2021/05/22 23:50:09;;;;;;;1.10;0.83;;;;;;;9.87;100.00;98629.66;10494672;28;20211;-75
2021/05/22 23:55:28;;;;;;;0.90;0.50;;;;;;;9.93;100.00;98619.78;10496670;28;20175;-79
